Time;durP1;ratioP1;P1;durP2;ratioP2;P2;SDS_P1;SDS_P2;PMS_P1;PMS_P2;Temp;Humidity;BMP_temperature;BMP_pressure;BME280_temperature;BME280_humidity;BME280_pressure;Samples;Min_cycle;Max_cycle;Signal;HPM_P1;HPM_P2
2021/06/30 00:01:20;;;;;;;5.15;1.60;;;;;;;16.66;80.49;99443.50;2212939;40;20034;-83
2021/06/30 00:02:53;;;;;;;4.35;1.33;;;;;;;16.65;80.31;99437.25;2212690;40;20093;-83
2021/06/30 00:04:25;;;;;;;9.05;1.73;;;;;;;16.67;80.32;99434.38;2212951;40;20031;-82
2021/06/30 00:05:57;;;;;;;5.18;1.50;;;;;;;16.60;80.38;99439.75;2211904;40;20505;-82
2021/06/30 00:07:29;;;;;;;3.90;1.40;;;;;;;16.58;80.32;99435.59;2211851;40;20053;-82
2021/06/30 00:09:00;;;;;;;5.00;1.42;;;;;;;16.58;80.42;99430.19;2212345;40;20401;-83
2021/06/30 00:10:32;;;;;;;6.28;1.90;;;;;;;16.60;80.56;99426.25;2212660;40;20034;-83
2021/06/30 00:12:06;;;;;;;4.95;1.92;;;;;;;16.71;80.20;99434.81;2213164;40;20034;-83
2021/06/30 00:13:39;;;;;;;4.43;1.70;;;;;;;16.72;80.16;99436.47;2212463;40;20342;-82
2021/06/30 00:15:17;;;;;;;4.32;2.05;;;;;;;16.73;80.03;99443.53;2212014;40;20034;-83
2021/06/30 00:16:50;;;;;;;5.20;1.50;;;;;;;16.72;80.22;99431.91;2211619;40;20052;-82
2021/06/30 00:18:22;;;;;;;5.70;1.80;;;;;;;16.70;80.05;99439.38;2211989;40;20080;-83
2021/06/30 00:19:54;;;;;;;4.05;1.60;;;;;;;16.68;80.48;99428.78;2212322;40;20038;-82
2021/06/30 00:21:25;;;;;;;3.53;1.50;;;;;;;16.66;80.30;99438.13;2212215;40;20049;-84
2021/06/30 00:22:58;;;;;;;3.70;1.42;;;;;;;16.63;80.78;99431.22;2212088;40;20049;-82
2021/06/30 00:24:30;;;;;;;5.25;1.80;;;;;;;16.63;80.82;99438.50;2212436;40;20034;-83
2021/06/30 00:26:01;;;;;;;4.57;1.75;;;;;;;16.60;80.82;99428.94;2212396;40;20042;-81
2021/06/30 00:27:35;;;;;;;3.28;1.42;;;;;;;16.56;81.00;99438.47;2212705;40;20053;-84
2021/06/30 00:29:07;;;;;;;6.78;1.95;;;;;;;16.54;81.02;99440.50;2212746;40;20575;-81
2021/06/30 00:30:40;;;;;;;5.45;2.05;;;;;;;16.49;81.37;99433.00;2213364;40;20429;-83
2021/06/30 00:32:11;;;;;;;5.68;1.65;;;;;;;16.48;81.55;99435.91;2212580;40;20034;-83
2021/06/30 00:33:43;;;;;;;4.65;1.70;;;;;;;16.50;81.53;99441.97;2213094;40;20038;-82
2021/06/30 00:35:15;;;;;;;5.40;1.40;;;;;;;16.49;81.40;99446.50;2213822;40;20049;-83
2021/06/30 00:36:47;;;;;;;3.15;1.60;;;;;;;16.50;81.56;99450.06;2213429;40;20041;-84
2021/06/30 00:38:18;;;;;;;4.03;1.85;;;;;;;16.55;81.49;99442.19;2213264;40;20030;-83
2021/06/30 00:39:50;;;;;;;6.22;2.97;;;;;;;16.64;81.08;99443.69;2212717;40;20104;-83
2021/06/30 00:41:21;;;;;;;7.35;2.45;;;;;;;16.69;80.96;99443.94;2213139;40;20045;-82
2021/06/30 00:42:54;;;;;;;4.38;2.15;;;;;;;16.74;80.79;99437.94;2212702;40;20030;-84
2021/06/30 00:44:26;;;;;;;5.28;1.70;;;;;;;16.81;80.88;99440.69;2212038;40;20044;-82
2021/06/30 00:45:56;;;;;;;3.35;1.30;;;;;;;16.84;80.45;99438.41;2211920;40;20045;-82
2021/06/30 00:47:28;;;;;;;3.35;1.33;;;;;;;16.90;80.20;99434.06;2213274;40;20034;-84
2021/06/30 00:49:01;;;;;;;5.85;1.75;;;;;;;16.91;80.07;99435.72;2212785;40;20042;-82
2021/06/30 00:50:33;;;;;;;4.60;1.48;;;;;;;16.86;79.85;99427.41;2212539;40;20045;-84
2021/06/30 00:52:06;;;;;;;4.03;1.90;;;;;;;16.85;79.99;99431.13;2212266;40;20049;-83
2021/06/30 00:53:36;;;;;;;4.38;1.92;;;;;;;16.84;79.93;99440.25;2211187;40;20045;-84
2021/06/30 00:55:09;;;;;;;4.07;1.88;;;;;;;16.84;79.74;99434.84;2211247;40;20053;-82
2021/06/30 00:56:41;;;;;;;4.38;1.40;;;;;;;16.85;79.43;99433.84;2211431;40;20042;-84
2021/06/30 00:58:13;;;;;;;3.28;1.30;;;;;;;16.87;79.19;99447.97;2211086;40;20424;-84
2021/06/30 00:59:45;;;;;;;4.07;1.35;;;;;;;16.83;79.13;99438.59;2212315;40;20045;-84
2021/06/30 01:01:16;;;;;;;3.38;1.40;;;;;;;16.84;79.35;99446.50;2212771;40;20034;-84
2021/06/30 01:02:48;;;;;;;2.80;1.38;;;;;;;16.87;79.17;99445.25;2213771;40;20038;-83
2021/06/30 01:04:20;;;;;;;3.85;1.48;;;;;;;16.92;78.81;99442.78;2215566;40;20041;-85
2021/06/30 01:05:52;;;;;;;6.18;1.55;;;;;;;16.96;78.64;99446.78;2214708;40;20480;-85
2021/06/30 01:07:24;;;;;;;6.38;1.92;;;;;;;16.97;78.45;99453.00;2214165;40;20352;-85
2021/06/30 01:08:55;;;;;;;4.50;1.48;;;;;;;17.00;78.46;99450.72;2213089;40;20037;-83
2021/06/30 01:10:26;;;;;;;4.25;1.42;;;;;;;17.00;78.45;99441.81;2213174;40;20049;-87
2021/06/30 01:11:59;;;;;;;4.97;1.10;;;;;;;17.03;78.30;99443.28;2214431;40;20038;-85
2021/06/30 01:13:32;;;;;;;3.88;1.38;;;;;;;17.04;78.29;99443.09;2214490;40;20038;-84
2021/06/30 01:15:05;;;;;;;3.03;1.30;;;;;;;16.99;78.17;99441.00;2212455;40;20445;-84
2021/06/30 01:16:37;;;;;;;2.80;1.25;;;;;;;16.97;78.38;99429.56;2213380;40;20049;-87
2021/06/30 01:18:08;;;;;;;4.70;1.40;;;;;;;16.97;78.32;99440.38;2213981;40;20386;-86
2021/06/30 01:19:40;;;;;;;3.63;1.10;;;;;;;16.93;78.17;99443.63;2213382;40;20287;-83
2021/06/30 01:21:15;;;;;;;5.93;1.58;;;;;;;16.96;78.10;99446.78;2213679;40;20338;-84
2021/06/30 01:23:06;;;;;;;3.78;1.00;;;;;;;16.96;77.95;99465.69;2214290;40;20703;-86
2021/06/30 01:24:39;;;;;;;4.82;1.10;;;;;;;16.92;78.25;99461.69;2212627;40;20035;-84
2021/06/30 01:26:11;;;;;;;2.83;1.10;;;;;;;16.90;78.51;99465.63;2213614;40;20038;-83
2021/06/30 01:27:43;;;;;;;3.50;1.50;;;;;;;16.90;78.78;99466.47;2213390;40;20497;-84
2021/06/30 01:29:16;;;;;;;5.80;1.30;;;;;;;16.91;78.73;99470.00;2212409;40;20309;-84
2021/06/30 01:30:49;;;;;;;3.75;1.10;;;;;;;16.93;78.73;99468.78;2212356;40;20124;-83
2021/06/30 01:32:21;;;;;;;4.47;1.05;;;;;;;16.93;78.38;99473.31;2212900;40;20049;-83
2021/06/30 01:33:52;;;;;;;3.72;1.45;;;;;;;16.95;78.51;99472.13;2211604;40;20030;-82
2021/06/30 01:35:25;;;;;;;3.65;1.65;;;;;;;16.95;78.63;99477.50;2210608;40;20049;-83
2021/06/30 01:36:57;;;;;;;3.15;1.08;;;;;;;16.97;78.54;99474.59;2210726;40;20060;-83
2021/06/30 01:38:30;;;;;;;7.43;1.45;;;;;;;17.02;78.63;99468.59;2210384;40;20295;-83
2021/06/30 01:40:06;;;;;;;5.47;1.70;;;;;;;16.99;78.62;99476.09;2210811;40;20418;-85
2021/06/30 01:41:38;;;;;;;3.00;1.25;;;;;;;16.99;78.87;99480.66;2210295;40;20034;-82
2021/06/30 01:43:09;;;;;;;4.28;1.25;;;;;;;16.95;78.79;99484.78;2210726;40;20042;-82
2021/06/30 01:44:41;;;;;;;5.25;1.25;;;;;;;16.97;78.77;99478.16;2210621;40;20027;-82
2021/06/30 01:46:13;;;;;;;3.03;1.10;;;;;;;16.95;78.86;99479.41;2210747;40;20038;-83
2021/06/30 01:47:44;;;;;;;3.20;0.98;;;;;;;16.96;78.83;99479.19;2210895;40;20041;-82
2021/06/30 01:49:16;;;;;;;2.72;1.05;;;;;;;16.92;78.90;99474.34;2211429;40;20038;-83
2021/06/30 01:50:49;;;;;;;3.38;1.35;;;;;;;16.95;79.07;99469.41;2210476;40;20038;-83
2021/06/30 01:52:20;;;;;;;3.55;1.10;;;;;;;16.97;78.74;99478.16;2210475;40;20038;-84
2021/06/30 01:53:56;;;;;;;3.63;1.25;;;;;;;16.98;79.00;99476.28;2210072;40;20049;-84
2021/06/30 01:55:27;;;;;;;4.78;1.02;;;;;;;16.96;78.78;99484.59;2211124;40;20026;-83
2021/06/30 01:56:59;;;;;;;4.50;1.50;;;;;;;16.97;79.04;99480.84;2213342;40;20048;-83
2021/06/30 01:58:31;;;;;;;4.22;1.50;;;;;;;16.97;79.04;99480.84;2212615;40;20048;-84
2021/06/30 02:00:02;;;;;;;3.55;1.10;;;;;;;16.97;79.12;99478.16;2212962;40;20034;-83
2021/06/30 02:01:35;;;;;;;5.07;1.63;;;;;;;16.94;78.94;99480.44;2213315;40;20062;-83
2021/06/30 02:03:07;;;;;;;4.15;1.15;;;;;;;16.93;79.00;99476.88;2212665;40;20075;-83
2021/06/30 02:04:39;;;;;;;2.72;1.05;;;;;;;16.94;78.92;99483.94;2213209;40;20318;-84
2021/06/30 02:06:11;;;;;;;4.13;1.90;;;;;;;16.94;78.98;99483.94;2212796;40;20054;-83
2021/06/30 02:07:43;;;;;;;4.00;1.08;;;;;;;16.92;78.98;99483.28;2213146;40;20045;-84
2021/06/30 02:09:17;;;;;;;4.13;1.75;;;;;;;16.92;78.66;99485.97;2213365;40;20070;-83
2021/06/30 02:10:48;;;;;;;2.42;1.00;;;;;;;16.93;78.71;99484.97;2213170;40;20042;-83
2021/06/30 02:12:19;;;;;;;3.75;1.10;;;;;;;16.94;78.58;99481.25;2213862;40;20034;-84
2021/06/30 02:13:52;;;;;;;3.65;1.00;;;;;;;16.90;78.35;99476.41;2213750;40;20042;-84
2021/06/30 02:15:27;;;;;;;6.45;1.67;;;;;;;16.91;78.54;99478.91;2213379;40;20038;-85
2021/06/30 02:16:58;;;;;;;1.95;0.80;;;;;;;16.91;78.76;99480.78;2214101;40;20298;-84
2021/06/30 02:18:30;;;;;;;4.28;1.10;;;;;;;16.88;78.58;99484.72;2213943;40;20037;-85
2021/06/30 02:20:01;;;;;;;3.83;1.20;;;;;;;16.87;78.22;99479.50;2212095;40;20084;-83
2021/06/30 02:21:35;;;;;;;3.20;1.00;;;;;;;16.88;77.77;99479.31;2211319;40;20038;-84
2021/06/30 02:23:07;;;;;;;2.50;0.65;;;;;;;16.87;77.73;99477.66;2211281;40;20042;-84
2021/06/30 02:24:40;;;;;;;2.80;0.90;;;;;;;16.87;77.54;99476.81;2211718;40;20030;-83
2021/06/30 02:26:12;;;;;;;3.70;0.90;;;;;;;16.88;77.48;99473.94;2212265;40;20033;-82
2021/06/30 02:27:45;;;;;;;3.65;0.90;;;;;;;16.89;77.50;99478.31;2210973;40;20034;-84
2021/06/30 02:29:17;;;;;;;2.30;0.80;;;;;;;16.91;77.27;99478.91;2211060;40;20045;-82
2021/06/30 02:30:49;;;;;;;1.63;0.70;;;;;;;16.89;76.70;99481.00;2212855;40;20052;-85
2021/06/30 02:32:21;;;;;;;3.65;0.77;;;;;;;16.89;76.64;99478.31;2211884;40;20038;-83
2021/06/30 02:34:02;;;;;;;2.65;0.80;;;;;;;16.92;76.36;99474.34;2214255;40;20148;-85
2021/06/30 02:35:41;;;;;;;2.22;0.70;;;;;;;16.88;76.12;99464.97;2214424;40;20135;-83
2021/06/30 02:37:23;;;;;;;3.70;0.70;;;;;;;16.82;76.13;99462.06;2221404;40;20114;-85
2021/06/30 02:38:56;;;;;;;2.38;0.98;;;;;;;16.75;75.85;99463.91;2220512;40;20033;-84
2021/06/30 02:40:30;;;;;;;4.18;0.60;;;;;;;16.75;75.96;99468.44;2221893;40;20030;-83
2021/06/30 02:42:02;;;;;;;4.15;0.60;;;;;;;16.75;75.69;99471.16;2222345;40;20034;-83
2021/06/30 02:43:33;;;;;;;2.72;0.57;;;;;;;16.71;75.86;99475.28;2221639;40;20045;-81
2021/06/30 02:45:08;;;;;;;2.42;0.60;;;;;;;16.69;75.90;99470.94;2221435;40;20033;-80
2021/06/30 02:46:40;;;;;;;2.38;0.68;;;;;;;16.68;75.55;99469.25;2221795;40;20037;-79
2021/06/30 02:48:12;;;;;;;2.33;0.75;;;;;;;16.69;75.57;99476.31;2221710;40;20045;-80
2021/06/30 02:49:44;;;;;;;1.35;0.50;;;;;;;16.71;75.84;99467.19;2220169;40;20053;-81
2021/06/30 02:51:15;;;;;;;4.68;0.65;;;;;;;16.70;75.74;99474.44;2221736;40;20026;-83
2021/06/30 02:52:49;;;;;;;5.03;0.85;;;;;;;16.65;75.78;99482.31;2219660;40;20033;-82
2021/06/30 02:54:21;;;;;;;4.28;0.73;;;;;;;16.63;75.64;99478.97;2215722;40;20037;-84
2021/06/30 02:55:55;;;;;;;3.25;0.70;;;;;;;16.61;76.01;99489.13;2218032;40;20042;-82
2021/06/30 02:57:25;;;;;;;2.70;0.70;;;;;;;16.59;76.09;99496.56;2221900;40;20042;-83
2021/06/30 02:58:57;;;;;;;3.22;0.85;;;;;;;16.57;76.32;99494.09;2219803;40;20021;-83
2021/06/30 03:00:29;;;;;;;2.17;0.60;;;;;;;16.56;76.31;99492.41;2216152;40;20039;-84
2021/06/30 03:02:00;;;;;;;3.30;0.70;;;;;;;16.54;76.42;99491.78;2219340;40;20021;-80
2021/06/30 03:03:32;;;;;;;2.13;0.68;;;;;;;16.52;76.57;99499.25;2219707;40;20025;-84
2021/06/30 03:05:04;;;;;;;2.35;0.60;;;;;;;16.50;76.52;99507.53;2221684;40;20030;-83
2021/06/30 03:06:36;;;;;;;1.77;0.57;;;;;;;16.51;76.53;99498.41;2220693;40;20049;-82
2021/06/30 03:08:08;;;;;;;4.40;0.60;;;;;;;16.50;76.42;99496.72;2221475;40;20034;-83
2021/06/30 03:09:40;;;;;;;4.82;0.90;;;;;;;16.49;76.46;99499.63;2219272;40;20026;-84
2021/06/30 03:11:12;;;;;;;3.35;0.60;;;;;;;16.51;76.41;99497.59;2215544;40;20045;-82
2021/06/30 03:12:44;;;;;;;3.60;0.88;;;;;;;16.51;76.48;99492.19;2220430;40;20040;-80
2021/06/30 03:14:16;;;;;;;2.65;0.80;;;;;;;16.53;76.46;99499.06;2221783;40;20044;-80
2021/06/30 03:15:48;;;;;;;2.40;0.50;;;;;;;16.53;76.44;99503.63;2221229;40;20085;-80
2021/06/30 03:17:20;;;;;;;2.50;0.50;;;;;;;16.53;76.34;99504.44;2219050;40;20085;-83
2021/06/30 03:18:52;;;;;;;3.08;0.60;;;;;;;16.55;76.59;99506.94;2221658;40;20037;-83
2021/06/30 03:20:23;;;;;;;2.03;0.60;;;;;;;16.54;76.30;99502.56;2221618;40;20132;-81
2021/06/30 03:21:54;;;;;;;4.72;0.90;;;;;;;16.54;76.21;99499.88;2221583;40;20045;-85
2021/06/30 03:23:26;;;;;;;3.05;0.85;;;;;;;16.50;76.26;99509.41;2221549;40;20052;-82
2021/06/30 03:24:57;;;;;;;2.25;0.88;;;;;;;16.52;76.61;99512.75;2218742;40;20038;-81
2021/06/30 03:26:30;;;;;;;2.55;0.80;;;;;;;16.55;76.15;99512.31;2217998;40;20042;-83
2021/06/30 03:28:02;;;;;;;2.15;0.70;;;;;;;16.48;76.37;99514.16;2221694;40;20053;-84
2021/06/30 03:29:37;;;;;;;4.05;0.90;;;;;;;16.47;76.41;99521.44;2219575;40;20050;-83
2021/06/30 03:31:15;;;;;;;2.30;0.65;;;;;;;16.46;76.53;99508.13;2215365;40;20030;-83
2021/06/30 03:32:55;;;;;;;2.80;0.70;;;;;;;16.51;76.24;99506.50;2220330;40;20026;-81
2021/06/30 03:34:32;;;;;;;3.20;0.70;;;;;;;16.48;76.02;99514.16;2216697;40;20086;-84
2021/06/30 03:36:05;;;;;;;2.67;0.65;;;;;;;16.48;75.93;99514.97;2217960;40;20073;-84
2021/06/30 03:37:37;;;;;;;1.38;0.55;;;;;;;16.46;76.16;99508.13;2216368;40;20033;-85
2021/06/30 03:39:09;;;;;;;1.63;0.60;;;;;;;16.44;75.92;99511.03;2217639;40;20040;-83
2021/06/30 03:40:41;;;;;;;2.00;0.80;;;;;;;16.44;76.04;99510.16;2222538;40;20033;-84
2021/06/30 03:42:14;;;;;;;1.60;0.60;;;;;;;16.41;75.85;99510.59;2222629;40;20041;-83
2021/06/30 03:43:47;;;;;;;4.03;0.90;;;;;;;16.42;76.03;99512.25;2216309;40;20050;-84
2021/06/30 03:45:19;;;;;;;3.35;0.65;;;;;;;16.41;76.05;99510.59;2212868;40;20398;-82
2021/06/30 03:46:50;;;;;;;2.80;0.70;;;;;;;16.40;75.98;99504.34;2212634;40;20096;-82
2021/06/30 03:48:22;;;;;;;3.53;0.80;;;;;;;16.40;76.03;99514.31;2217749;40;20053;-81
2021/06/30 03:49:53;;;;;;;2.30;0.70;;;;;;;16.39;75.80;99516.16;2219949;40;20033;-81
2021/06/30 03:51:25;;;;;;;2.58;0.60;;;;;;;16.36;75.88;99508.47;2217252;40;20022;-83
2021/06/30 03:52:57;;;;;;;1.35;0.52;;;;;;;16.36;76.05;99503.06;2219317;40;20022;-80
2021/06/30 03:54:29;;;;;;;2.00;0.52;;;;;;;16.42;75.85;99512.25;2222353;40;20035;-83
2021/06/30 03:56:00;;;;;;;3.75;0.90;;;;;;;16.43;75.82;99513.94;2222325;40;20037;-82
2021/06/30 03:57:33;;;;;;;6.38;0.80;;;;;;;16.40;75.69;99520.53;2221758;40;20045;-83
2021/06/30 03:59:05;;;;;;;3.50;0.90;;;;;;;16.40;75.69;99519.69;2222038;40;20041;-81
2021/06/30 04:00:37;;;;;;;2.75;0.80;;;;;;;16.43;75.74;99524.72;2221817;40;20022;-80
2021/06/30 04:02:09;;;;;;;1.98;0.70;;;;;;;16.42;75.88;99523.03;2222606;40;20045;-82
2021/06/30 04:03:43;;;;;;;2.92;0.75;;;;;;;16.44;75.79;99531.75;2222499;40;20025;-82
2021/06/30 04:05:15;;;;;;;2.10;0.52;;;;;;;16.47;75.95;99528.66;2222094;40;20574;-80
2021/06/30 04:06:46;;;;;;;1.15;0.60;;;;;;;16.45;75.80;99528.03;2222178;40;20041;-81
2021/06/30 04:08:18;;;;;;;2.30;0.73;;;;;;;16.43;75.95;99530.94;2222425;40;20042;-82
2021/06/30 04:09:50;;;;;;;2.25;0.60;;;;;;;16.44;75.69;99529.91;2220293;40;20044;-79
2021/06/30 04:11:22;;;;;;;3.20;0.75;;;;;;;16.42;75.48;99534.66;2220885;40;20021;-80
2021/06/30 04:12:55;;;;;;;2.63;0.50;;;;;;;16.38;75.83;99534.22;2216611;40;20064;-81
2021/06/30 04:14:27;;;;;;;3.95;0.90;;;;;;;16.36;75.82;99530.88;2221714;40;20021;-82
2021/06/30 04:15:59;;;;;;;2.83;0.60;;;;;;;16.36;75.73;99530.06;2220573;40;20031;-82
2021/06/30 04:17:31;;;;;;;1.63;0.60;;;;;;;16.37;75.43;99537.13;2222350;40;20049;-82
2021/06/30 04:19:02;;;;;;;5.28;0.80;;;;;;;16.36;75.82;99530.88;2222559;40;20037;-84
2021/06/30 04:20:34;;;;;;;3.88;0.60;;;;;;;16.37;75.75;99529.84;2222349;40;20038;-80
2021/06/30 04:22:07;;;;;;;2.50;0.52;;;;;;;16.38;75.75;99525.31;2220490;40;20030;-85
2021/06/30 04:23:38;;;;;;;3.05;0.68;;;;;;;16.40;75.72;99533.19;2216617;40;20034;-82
2021/06/30 04:25:11;;;;;;;2.72;1.00;;;;;;;16.37;75.48;99527.16;2217159;40;20463;-81
2021/06/30 04:26:43;;;;;;;3.75;0.60;;;;;;;16.34;75.50;99530.22;2222335;40;20244;-81
2021/06/30 04:28:16;;;;;;;2.13;0.60;;;;;;;16.38;75.40;99525.31;2220505;40;20072;-84
2021/06/30 04:29:48;;;;;;;7.28;0.70;;;;;;;16.40;75.29;99531.31;2222430;40;20022;-87
2021/06/30 04:31:20;;;;;;;3.35;0.60;;;;;;;16.39;75.16;99529.63;2222287;40;20026;-82
2021/06/30 04:32:52;;;;;;;3.10;0.70;;;;;;;16.36;75.01;99520.09;2222630;40;20034;-80
2021/06/30 04:34:23;;;;;;;2.70;0.60;;;;;;;16.40;75.19;99527.78;2221794;40;20033;-83
2021/06/30 04:35:54;;;;;;;3.28;0.70;;;;;;;16.40;74.99;99530.50;2221908;40;20026;-83
2021/06/30 04:37:26;;;;;;;2.33;0.60;;;;;;;16.45;74.90;99536.13;2222641;40;20037;-84
2021/06/30 04:38:58;;;;;;;1.73;0.50;;;;;;;16.45;74.58;99525.31;2222570;40;20030;-81
2021/06/30 04:40:30;;;;;;;1.30;0.50;;;;;;;16.41;74.51;99534.84;2221942;40;20029;-84
2021/06/30 04:42:02;;;;;;;4.43;0.73;;;;;;;16.39;74.29;99535.03;2216665;40;20041;-81
2021/06/30 04:43:35;;;;;;;1.85;0.60;;;;;;;16.37;74.12;99534.41;2216502;40;20034;-80
2021/06/30 04:45:07;;;;;;;1.70;0.55;;;;;;;16.34;74.39;99537.50;2218330;40;20029;-81
2021/06/30 04:46:39;;;;;;;5.45;0.70;;;;;;;16.33;74.23;99536.69;2219392;40;20048;-81
2021/06/30 04:48:11;;;;;;;2.05;0.55;;;;;;;16.32;74.31;99537.69;2221862;40;20037;-80
2021/06/30 04:49:42;;;;;;;2.92;0.90;;;;;;;16.34;74.04;99541.00;2219300;40;20038;-80
2021/06/30 04:51:14;;;;;;;2.13;0.60;;;;;;;16.30;73.99;99542.44;2220608;40;20026;-81
2021/06/30 04:52:45;;;;;;;3.33;0.60;;;;;;;16.29;74.02;99539.97;2221422;40;20060;-80
2021/06/30 04:54:17;;;;;;;1.77;0.50;;;;;;;16.24;74.18;99540.53;2221925;40;20025;-80
2021/06/30 04:55:49;;;;;;;1.65;0.60;;;;;;;16.20;74.07;99547.34;2222462;40;20033;-82
2021/06/30 04:57:20;;;;;;;1.23;0.60;;;;;;;16.19;74.21;99540.28;2220757;40;20026;-82
2021/06/30 04:58:53;;;;;;;1.70;0.50;;;;;;;16.17;74.42;99553.09;2216399;40;20033;-80
2021/06/30 05:00:25;;;;;;;1.95;0.63;;;;;;;16.08;74.39;99538.94;2218282;40;20044;-80
2021/06/30 05:01:57;;;;;;;1.70;0.55;;;;;;;16.06;74.35;99546.38;2222381;40;20184;-81
2021/06/30 05:03:30;;;;;;;1.75;0.52;;;;;;;16.04;74.03;99538.50;2221329;40;20415;-79
2021/06/30 05:07:29;;;;;;;2.88;0.50;;;;;;;15.96;74.73;99546.72;2215633;40;20338;-83
2021/06/30 05:09:11;;;;;;;3.88;0.60;;;;;;;15.93;75.07;99547.09;2214924;40;20038;-81
2021/06/30 05:10:42;;;;;;;1.48;0.60;;;;;;;15.93;75.27;99546.25;2213957;40;20092;-81
2021/06/30 05:12:14;;;;;;;1.83;0.70;;;;;;;15.88;75.85;99544.13;2211162;40;20062;-80
2021/06/30 05:14:00;;;;;;;3.47;0.75;;;;;;;15.84;76.31;99549.06;2215058;40;20508;-81
2021/06/30 05:15:43;;;;;;;2.13;0.50;;;;;;;15.71;77.09;99552.41;2221141;40;20054;-82
2021/06/30 05:17:23;;;;;;;1.83;0.60;;;;;;;15.62;77.48;99545.47;2219691;40;20037;-80
2021/06/30 05:19:22;;;;;;;2.05;0.65;;;;;;;15.59;78.27;99553.94;2219817;40;20040;-81
2021/06/30 05:26:23;;;;;;;4.07;0.70;;;;;;;15.48;78.93;99551.75;2213886;40;20410;-80
2021/06/30 05:34:39;;;;;;;3.63;0.60;;;;;;;15.60;78.84;99552.91;2215438;40;20405;-80
2021/06/30 05:38:54;;;;;;;3.72;1.33;;;;;;;15.71;78.55;99557.81;2211848;40;20038;-80
2021/06/30 05:40:44;;;;;;;3.10;1.08;;;;;;;15.87;78.60;99553.25;2214091;40;20029;-80
2021/06/30 05:42:18;;;;;;;3.40;0.70;;;;;;;15.86;78.07;99554.28;2217753;40;20034;-81
2021/06/30 05:43:52;;;;;;;1.92;0.60;;;;;;;15.87;77.97;99551.38;2218167;40;20112;-79
2021/06/30 05:45:27;;;;;;;1.98;0.70;;;;;;;15.89;77.57;99560.13;2220489;40;20060;-79
2021/06/30 05:46:59;;;;;;;1.75;0.65;;;;;;;15.90;76.94;99555.53;2216006;40;20418;-79
2021/06/30 05:48:31;;;;;;;2.70;0.60;;;;;;;15.90;76.95;99555.53;2215626;40;20042;-79
2021/06/30 05:50:03;;;;;;;1.25;0.50;;;;;;;15.93;76.77;99551.63;2217566;40;20034;-80
2021/06/30 05:51:34;;;;;;;1.73;0.60;;;;;;;15.96;76.75;99554.81;2220401;40;20053;-79
2021/06/30 05:53:10;;;;;;;3.40;0.60;;;;;;;15.97;76.49;99559.13;2219266;40;20029;-81
2021/06/30 05:54:43;;;;;;;1.40;0.60;;;;;;;16.05;76.13;99559.03;2217613;40;20030;-81
2021/06/30 05:56:23;;;;;;;1.85;0.50;;;;;;;16.10;75.96;99554.91;2212649;40;20061;-81
2021/06/30 05:57:55;;;;;;;3.28;0.50;;;;;;;16.17;75.91;99545.88;2215688;40;20092;-82
2021/06/30 05:59:26;;;;;;;4.55;0.60;;;;;;;16.26;75.47;99549.25;2217760;40;20026;-80
2021/06/30 06:00:59;;;;;;;0.95;0.40;;;;;;;16.27;74.99;99550.09;2219387;40;20461;-79
2021/06/30 06:02:31;;;;;;;3.13;0.60;;;;;;;16.27;74.44;99547.41;2215155;40;20044;-80
2021/06/30 06:04:03;;;;;;;2.10;0.50;;;;;;;16.29;74.56;99550.75;2218970;40;20081;-81
2021/06/30 06:05:36;;;;;;;2.28;0.57;;;;;;;16.33;74.33;99552.00;2216341;40;20034;-81
2021/06/30 06:07:08;;;;;;;3.45;0.75;;;;;;;16.43;74.12;99547.13;2210918;40;20137;-80
2021/06/30 06:08:40;;;;;;;1.35;0.50;;;;;;;16.51;73.85;99548.84;2215346;40;20033;-82
2021/06/30 06:10:12;;;;;;;3.00;0.50;;;;;;;16.52;73.16;99556.72;2218784;40;20046;-81
2021/06/30 06:11:44;;;;;;;1.85;0.40;;;;;;;16.56;72.92;99546.38;2217328;40;20034;-80
2021/06/30 06:13:15;;;;;;;2.55;0.50;;;;;;;16.62;72.67;99542.91;2219276;40;20034;-80
2021/06/30 06:14:46;;;;;;;6.00;0.85;;;;;;;16.60;72.48;99555.75;2218355;40;20033;-80
2021/06/30 06:16:21;;;;;;;4.20;0.50;;;;;;;16.59;72.25;99550.53;2217522;40;20036;-81
2021/06/30 06:17:53;;;;;;;1.42;0.50;;;;;;;16.67;72.44;99555.81;2217811;40;20317;-80
2021/06/30 06:19:26;;;;;;;2.03;0.50;;;;;;;16.68;72.16;99557.47;2216652;40;20031;-81
2021/06/30 06:20:57;;;;;;;1.60;0.55;;;;;;;16.67;71.70;99551.25;2219759;40;20041;-81
2021/06/30 06:22:28;;;;;;;4.30;0.90;;;;;;;16.72;72.05;99555.22;2214291;40;20042;-79
2021/06/30 06:24:00;;;;;;;3.40;0.80;;;;;;;16.77;71.76;99550.06;2213055;40;20038;-79
2021/06/30 06:25:32;;;;;;;1.73;0.57;;;;;;;16.83;71.58;99557.34;2216337;40;20030;-79
2021/06/30 06:27:03;;;;;;;3.75;0.60;;;;;;;16.87;71.55;99555.94;2212458;40;20034;-80
2021/06/30 06:28:35;;;;;;;2.22;0.82;;;;;;;16.93;71.42;99552.47;2216260;40;20036;-80
2021/06/30 06:30:09;;;;;;;4.18;1.10;;;;;;;16.97;70.62;99553.75;2219620;40;20026;-80
2021/06/30 06:31:45;;;;;;;2.28;0.70;;;;;;;16.95;70.80;99552.28;2219146;40;20407;-79
2021/06/30 06:33:16;;;;;;;1.48;0.40;;;;;;;16.96;70.32;99553.94;2218365;40;20044;-81
2021/06/30 06:34:48;;;;;;;1.98;0.55;;;;;;;16.92;70.12;99558.88;2217477;40;20066;-80
2021/06/30 06:36:20;;;;;;;2.42;0.60;;;;;;;16.92;70.16;99558.03;2210377;40;20034;-79
2021/06/30 06:37:51;;;;;;;1.58;0.45;;;;;;;16.93;70.22;99559.72;2214334;40;20048;-80
2021/06/30 06:39:23;;;;;;;2.50;0.50;;;;;;;16.94;70.57;99559.53;2216154;40;20026;-79
2021/06/30 06:40:56;;;;;;;1.73;0.45;;;;;;;16.95;70.36;99555.81;2215409;40;20406;-78
2021/06/30 06:42:27;;;;;;;1.83;0.43;;;;;;;16.95;70.24;99555.81;2216204;40;20040;-79
2021/06/30 06:43:59;;;;;;;1.27;0.50;;;;;;;16.93;70.05;99559.72;2214810;40;20064;-80
2021/06/30 06:45:30;;;;;;;2.42;0.68;;;;;;;16.92;70.33;99555.34;2215194;40;20042;-79
2021/06/30 06:47:03;;;;;;;2.60;0.60;;;;;;;16.96;70.37;99552.09;2215762;40;20354;-79
2021/06/30 06:48:35;;;;;;;1.88;0.60;;;;;;;17.08;70.15;99551.53;2215980;40;20314;-79
2021/06/30 06:50:07;;;;;;;1.83;0.60;;;;;;;17.17;69.59;99550.34;2216271;40;20041;-81
2021/06/30 06:51:40;;;;;;;2.50;0.50;;;;;;;17.34;69.56;99550.81;2215781;40;20041;-79
2021/06/30 06:53:11;;;;;;;1.85;0.45;;;;;;;17.47;68.88;99555.44;2218944;40;20199;-83
2021/06/30 06:54:43;;;;;;;2.38;0.57;;;;;;;17.50;68.69;99552.31;2214371;40;20402;-81
2021/06/30 06:56:19;;;;;;;1.70;0.52;;;;;;;17.44;68.42;99548.56;2214619;40;20029;-82
2021/06/30 06:57:51;;;;;;;2.38;0.50;;;;;;;17.49;67.90;99550.66;2219295;40;20026;-81
2021/06/30 06:59:22;;;;;;;1.67;0.50;;;;;;;17.52;67.36;99552.16;2220727;40;20033;-80
2021/06/30 07:00:53;;;;;;;1.85;0.40;;;;;;;17.47;67.13;99544.66;2214359;40;20042;-81
2021/06/30 07:02:28;;;;;;;2.50;0.40;;;;;;;17.48;66.90;99548.97;2214110;40;20042;-79
2021/06/30 07:04:00;;;;;;;9.93;1.02;;;;;;;17.45;67.02;99552.13;2219827;40;20036;-82
2021/06/30 07:05:32;;;;;;;1.38;0.40;;;;;;;17.48;66.29;99548.97;2218780;40;20034;-80
2021/06/30 07:07:04;;;;;;;2.58;0.73;;;;;;;17.53;66.57;99553.78;2214838;40;20054;-80
2021/06/30 07:08:35;;;;;;;1.98;0.65;;;;;;;17.67;66.80;99551.97;2219305;40;20068;-81
2021/06/30 07:10:09;;;;;;;1.58;0.60;;;;;;;17.72;66.28;99544.09;2219684;40;20022;-84
2021/06/30 07:11:40;;;;;;;3.85;0.65;;;;;;;17.84;66.36;99544.31;2220475;40;20034;-82
2021/06/30 07:13:12;;;;;;;3.78;0.60;;;;;;;18.02;65.58;99541.06;2219572;40;20042;-81
2021/06/30 07:14:44;;;;;;;2.30;0.77;;;;;;;18.18;65.51;99543.38;2213265;40;20044;-82
2021/06/30 07:16:15;;;;;;;2.58;0.60;;;;;;;18.21;64.80;99542.09;2212642;40;20034;-83
2021/06/30 07:17:48;;;;;;;5.45;0.70;;;;;;;18.18;64.47;99537.94;2213087;40;20030;-82
2021/06/30 07:19:20;;;;;;;2.63;0.70;;;;;;;18.14;64.30;99542.09;2212134;40;20042;-83
2021/06/30 07:20:52;;;;;;;4.55;0.95;;;;;;;18.24;64.02;99542.53;2217248;40;20055;-80
2021/06/30 07:22:24;;;;;;;3.30;0.70;;;;;;;18.27;64.31;99540.44;2218570;40;20040;-83
2021/06/30 07:23:56;;;;;;;2.97;1.00;;;;;;;18.30;64.23;99540.03;2216207;40;20420;-81
2021/06/30 07:25:28;;;;;;;2.25;0.73;;;;;;;18.40;63.93;99543.16;2213024;40;20045;-81
2021/06/30 07:27:01;;;;;;;2.33;0.63;;;;;;;18.37;64.10;99546.28;2214758;40;20029;-84
2021/06/30 07:28:33;;;;;;;1.80;0.50;;;;;;;18.46;63.91;99539.63;2215917;40;20465;-82
2021/06/30 07:30:05;;;;;;;1.58;0.50;;;;;;;18.43;63.64;99550.84;2220047;40;20033;-82
2021/06/30 07:31:37;;;;;;;1.88;0.30;;;;;;;18.27;63.25;99545.84;2217191;40;20049;-84
2021/06/30 07:33:09;;;;;;;1.33;0.50;;;;;;;18.19;63.29;99542.31;2221395;40;20048;-86
2021/06/30 07:34:41;;;;;;;1.13;0.47;;;;;;;18.30;63.51;99548.16;2221985;40;20079;-79